Time;durP1;ratioP1;P1;durP2;ratioP2;P2;SDS_P1;SDS_P2;PMS_P1;PMS_P2;Temp;Humidity;BMP_temperature;BMP_pressure;BME280_temperature;BME280_humidity;BME280_pressure;Samples;Min_cycle;Max_cycle;Signal;HPM_P1;HPM_P2
2022/09/11 00:01:54;;;;;;;;;5.25;5.25;;;;;23.93;48.09;101443.00;5039814;28;45406;-50
2022/09/11 00:04:19;;;;;;;;;6.00;5.00;;;;;23.93;48.03;101438.53;5040550;28;45528;-45
2022/09/11 00:06:45;;;;;;;;;6.00;6.00;;;;;23.92;47.92;101444.75;5038733;28;45479;-48
2022/09/11 00:09:10;;;;;;;;;6.75;4.00;;;;;23.92;47.83;101439.47;5051117;28;45311;-52
2022/09/11 00:11:41;;;;;;;;;4.75;4.75;;;;;23.92;47.69;101439.47;5046203;28;45799;-48
2022/09/11 00:14:10;;;;;;;;;2.25;2.25;;;;;23.91;48.17;101439.56;5054617;28;46230;-46
2022/09/11 00:16:40;;;;;;;;;7.25;6.00;;;;;23.90;48.00;101428.16;5058225;28;45726;-47
2022/09/11 00:19:09;;;;;;;;;7.00;6.00;;;;;23.91;47.85;101435.16;5046723;28;45267;-54
2022/09/11 00:21:35;;;;;;;;;5.00;5.00;;;;;23.90;47.84;101438.75;5043300;28;45485;-50
2022/09/11 00:24:01;;;;;;;;;7.75;5.00;;;;;23.91;48.10;101431.63;5055471;28;45155;-49
2022/09/11 00:26:26;;;;;;;;;7.00;7.00;;;;;23.91;47.74;101435.16;5044379;28;45414;-53
2022/09/11 00:28:52;;;;;;;;;8.75;6.25;;;;;23.91;48.03;101432.50;5036921;28;45934;-53
2022/09/11 00:31:22;;;;;;;;;5.00;5.00;;;;;23.91;47.99;101435.16;5038039;28;45544;-52
2022/09/11 00:33:47;;;;;;;;;4.75;4.75;;;;;23.92;47.76;101428.03;5038103;28;46253;-51
2022/09/11 00:36:15;;;;;;;;;6.00;6.00;;;;;23.91;48.13;101429.00;5037807;28;45277;-54
2022/09/11 00:38:41;;;;;;;;;4.75;4.75;;;;;23.91;47.60;101426.34;5038420;28;45480;-53
2022/09/11 00:41:12;;;;;;;;;6.00;5.75;;;;;23.91;47.54;101434.28;5036903;28;45427;-54
2022/09/11 00:43:55;;;;;;;;;5.75;5.75;;;;;23.91;47.63;101426.34;5036058;28;46227;-54
2022/09/11 00:46:30;;;;;;;;;6.00;6.00;;;;;23.90;47.67;101422.84;5041326;28;45257;-56
2022/09/11 00:48:57;;;;;;;;;6.75;5.00;;;;;23.91;47.40;101421.03;5049624;28;45295;-48
2022/09/11 00:51:27;;;;;;;;;8.50;6.25;;;;;23.90;47.57;101422.84;5045381;28;45220;-52
2022/09/11 00:53:56;;;;;;;;;5.25;5.25;;;;;23.91;47.60;101421.03;5038677;28;46289;-53
2022/09/11 00:56:27;;;;;;;;;5.00;5.00;;;;;23.91;47.41;101418.41;5038067;28;45413;-50
2022/09/11 00:58:55;;;;;;;;;6.50;5.50;;;;;23.91;47.63;101423.69;5049717;28;45341;-50
2022/09/11 01:01:20;;;;;;;;;7.75;6.75;;;;;23.91;47.54;101418.41;5052307;28;45173;-47
2022/09/11 01:03:46;;;;;;;;;6.00;5.00;;;;;23.91;47.54;101418.41;5038360;28;46873;-48
2022/09/11 01:06:12;;;;;;;;;5.50;4.75;;;;;23.91;48.19;101413.09;5037570;28;45295;-47
2022/09/11 01:08:39;;;;;;;;;1.00;1.00;;;;;23.90;47.97;101416.69;5037830;28;45380;-53
2022/09/11 01:11:16;;;;;;;;;4.25;4.25;;;;;23.91;47.51;101413.09;5037715;28;45602;-53
2022/09/11 01:14:04;;;;;;;;;8.00;5.75;;;;;23.90;47.96;101406.97;5037601;28;46510;-53
2022/09/11 01:16:52;;;;;;;;;7.00;5.50;;;;;23.90;47.57;101406.97;5043895;28;45786;-52
2022/09/11 01:19:59;;;;;;;;;6.25;4.50;;;;;23.89;47.87;101405.25;5037239;28;45268;-53
2022/09/11 01:22:45;;;;;;;;;5.00;5.00;;;;;23.89;47.84;101404.41;5037896;28;45315;-54
2022/09/11 01:25:34;;;;;;;;;8.00;7.00;;;;;23.89;47.83;101402.63;5037439;28;45416;-55
2022/09/11 01:28:10;;;;;;;;;6.25;6.00;;;;;23.89;47.88;101404.41;5042220;28;45866;-53
2022/09/11 01:30:40;;;;;;;;;5.50;4.25;;;;;23.88;47.98;101400.03;5043987;28;45462;-53
2022/09/11 01:33:17;;;;;;;;;7.25;5.75;;;;;23.87;47.81;101395.69;5038491;28;45346;-53
2022/09/11 01:35:42;;;;;;;;;5.75;5.00;;;;;23.88;47.63;101395.63;5037434;28;49424;-56
2022/09/11 01:38:20;;;;;;;;;7.50;7.00;;;;;23.86;47.57;101392.22;5038115;28;45461;-52
2022/09/11 01:40:55;;;;;;;;;5.25;5.25;;;;;23.87;48.06;101393.03;5047846;28;45342;-56
2022/09/11 01:43:25;;;;;;;;;5.75;5.75;;;;;23.86;47.92;101394.84;5054021;28;44851;-50
2022/09/11 01:45:53;;;;;;;;;7.00;6.00;;;;;23.86;47.62;101399.31;5046319;28;46290;-48
2022/09/11 01:48:25;;;;;;;;;6.25;6.25;;;;;23.86;47.43;101396.66;5043862;28;45157;-47
2022/09/11 01:50:54;;;;;;;;;5.75;5.00;;;;;23.86;47.75;101396.66;5040512;28;45268;-48
2022/09/11 01:53:24;;;;;;;;;6.75;6.00;;;;;23.86;48.09;101394.03;5041149;28;45323;-50
2022/09/11 01:56:01;;;;;;;;;6.00;6.00;;;;;23.86;48.03;101394.84;5039703;28;46064;-52
2022/09/11 01:58:30;;;;;;;;;4.75;4.75;;;;;23.86;47.42;101396.66;5035505;28;45721;-50
2022/09/11 02:01:02;;;;;;;;;5.25;5.25;;;;;23.85;47.60;101393.16;5040754;28;45350;-50
2022/09/11 02:03:35;;;;;;;;;6.00;6.00;;;;;23.86;47.77;101396.66;5040803;28;45360;-48
2022/09/11 02:06:06;;;;;;;;;5.00;5.00;;;;;23.86;47.88;101397.50;5043397;28;47402;-50
2022/09/11 02:08:45;;;;;;;;;6.00;5.75;;;;;23.85;47.60;101398.44;5053303;28;45237;-48
2022/09/11 02:11:13;;;;;;;;;6.50;4.75;;;;;23.86;47.70;101396.66;5053514;28;45226;-51
2022/09/11 02:13:48;;;;;;;;;7.00;7.00;;;;;23.85;47.62;101390.50;5039867;28;45710;-51
2022/09/11 02:16:37;;;;;;;;;5.50;5.00;;;;;23.85;47.84;101390.50;5041028;28;45577;-49
2022/09/11 02:19:12;;;;;;;;;7.75;6.00;;;;;23.86;47.88;101391.38;5056963;28;45703;-54
2022/09/11 02:21:37;;;;;;;;;5.50;5.50;;;;;23.84;47.33;101391.44;5048120;28;45343;-54
2022/09/11 02:24:03;;;;;;;;;5.00;5.00;;;;;23.84;47.33;101388.78;5039912;28;45410;-51
2022/09/11 02:26:32;;;;;;;;;6.25;5.00;;;;;23.84;47.83;101394.09;5036809;28;46852;-48
2022/09/11 02:28:58;;;;;;;;;6.50;6.50;;;;;23.85;47.68;101392.31;5045136;28;45705;-46
2022/09/11 02:31:24;;;;;;;;;5.50;4.00;;;;;23.84;47.51;101382.66;5047177;28;45321;-51
2022/09/11 02:33:50;;;;;;;;;5.00;5.00;;;;;23.83;48.05;101384.44;5042535;28;45338;-51
2022/09/11 02:36:30;;;;;;;;;6.00;5.00;;;;;23.84;47.51;101387.97;5040159;28;47368;-51
2022/09/11 02:39:17;;;;;;;;;5.75;5.00;;;;;23.84;47.68;101388.78;5040972;28;45280;-49
2022/09/11 02:42:34;;;;;;;;;6.00;5.00;;;;;23.83;47.84;101395.03;5039819;28;45451;-50
2022/09/11 02:45:25;;;;;;;;;6.25;6.25;;;;;23.84;47.48;101390.59;4984495;28;45254;-46
2022/09/11 02:48:10;;;;;;;;;5.75;5.50;;;;;23.82;47.60;101395.97;4983905;28;46496;-46
2022/09/11 02:50:49;;;;;;;;;8.00;4.75;;;;;23.83;47.83;101395.03;5030654;28;45422;-49
2022/09/11 02:53:25;;;;;;;;;4.25;4.25;;;;;23.82;47.88;101395.97;5039637;28;45420;-49
2022/09/11 02:56:13;;;;;;;;;8.00;7.00;;;;;23.82;47.71;101392.50;5046464;28;45516;-48
2022/09/11 02:59:02;;;;;;;;;5.25;5.25;;;;;23.81;47.31;101396.06;5058518;28;46270;-48
2022/09/11 03:01:27;;;;;;;;;6.75;5.25;;;;;23.81;47.70;101388.13;5041303;28;45399;-50
2022/09/11 03:03:52;;;;;;;;;4.50;4.50;;;;;23.82;47.85;101392.50;5039515;28;45424;-49
2022/09/11 03:06:23;;;;;;;;;5.00;3.67;;;;;23.81;47.37;101390.78;5040607;28;57503;-53
2022/09/11 03:08:49;;;;;;;;;7.00;5.00;;;;;23.81;47.53;101390.78;5040351;28;45575;-54
2022/09/11 03:11:16;;;;;;;;;5.00;5.00;;;;;23.80;47.92;101389.94;5038269;28;45780;-54
2022/09/11 03:13:43;;;;;;;;;7.75;6.00;;;;;23.81;47.89;101389.00;5040061;28;45438;-46
2022/09/11 03:16:09;;;;;;;;;5.50;5.00;;;;;23.82;47.82;101387.19;5040063;28;45519;-53
2022/09/11 03:18:34;;;;;;;;;6.00;6.00;;;;;23.81;47.39;101382.84;5039251;28;47255;-56
2022/09/11 03:21:00;;;;;;;;;6.50;5.25;;;;;23.81;47.95;101388.13;5044561;28;45379;-53
2022/09/11 03:23:26;;;;;;;;;5.00;5.00;;;;;23.81;47.92;101390.78;5045327;28;45344;-50
2022/09/11 03:25:51;;;;;;;;;7.00;5.50;;;;;23.81;47.90;101385.50;5050944;28;45289;-47
2022/09/11 03:28:17;;;;;;;;;5.00;5.00;;;;;23.81;47.78;101396.06;5040590;28;45984;-54
2022/09/11 03:30:42;;;;;;;;;4.00;4.00;;;;;23.81;47.39;101385.50;5039854;28;45295;-52
2022/09/11 03:33:08;;;;;;;;;6.00;6.00;;;;;23.80;47.52;101383.78;5039024;28;48192;-48
2022/09/11 03:35:34;;;;;;;;;5.00;5.00;;;;;23.80;47.28;101389.94;5041703;28;45548;-49
2022/09/11 03:37:59;;;;;;;;;6.00;4.00;;;;;23.80;47.83;101381.13;5039324;28;45414;-49
2022/09/11 03:40:25;;;;;;;;;6.00;4.00;;;;;23.80;47.52;101389.06;5038305;28;45182;-51
2022/09/11 03:42:51;;;;;;;;;6.00;6.00;;;;;23.78;47.28;101387.38;5040691;28;45204;-51
2022/09/11 03:45:17;;;;;;;;;5.00;5.00;;;;;23.80;47.37;101389.06;5039282;28;45521;-51
2022/09/11 03:47:43;;;;;;;;;5.50;5.50;;;;;23.80;47.81;101383.78;5038595;28;45955;-51
2022/09/11 03:50:08;;;;;;;;;4.25;4.00;;;;;23.78;47.28;101387.38;5038873;28;45307;-54
2022/09/11 03:52:35;;;;;;;;;5.25;5.25;;;;;23.78;47.71;101384.72;5038535;28;45280;-55
2022/09/11 03:55:00;;;;;;;;;5.00;5.00;;;;;23.77;47.59;101383.03;5038788;28;45311;-56
2022/09/11 03:57:26;;;;;;;;;4.00;4.00;;;;;23.80;47.78;101386.44;5037951;28;45394;-55
2022/09/11 03:59:51;;;;;;;;;6.50;5.25;;;;;23.79;47.52;101388.25;5041800;28;58566;-51
2022/09/11 04:02:17;;;;;;;;;5.50;5.00;;;;;23.78;47.26;101384.72;5045685;28;45407;-51
2022/09/11 04:04:42;;;;;;;;;6.00;6.00;;;;;23.77;47.75;101385.66;5049177;28;45409;-52
2022/09/11 04:07:08;;;;;;;;;5.00;5.00;;;;;23.77;47.28;101385.66;5054883;28;51379;-49
2022/09/11 04:09:33;;;;;;;;;2.00;1.00;;;;;23.78;47.41;101381.25;5059294;28;44731;-51
2022/09/11 04:11:58;;;;;;;;;5.50;5.00;;;;;23.77;47.61;101375.09;5059780;28;44810;-47
2022/09/11 04:14:24;;;;;;;;;6.00;5.00;;;;;23.77;47.29;101379.53;5044914;28;45338;-52
2022/09/11 04:16:49;;;;;;;;;6.50;5.25;;;;;23.77;47.65;101384.84;5039069;28;45363;-50
2022/09/11 04:19:15;;;;;;;;;8.00;6.00;;;;;23.77;47.35;101384.84;5037467;28;45335;-49
2022/09/11 04:21:41;;;;;;;;;5.00;4.00;;;;;23.76;47.42;101381.31;5042054;28;45358;-53
2022/09/11 04:24:06;;;;;;;;;9.00;6.00;;;;;23.76;47.59;101383.97;5043444;28;45280;-54
2022/09/11 04:26:32;;;;;;;;;5.00;5.00;;;;;23.76;47.57;101385.78;5040010;28;45498;-54
2022/09/11 04:28:59;;;;;;;;;5.00;5.00;;;;;23.75;47.29;101382.28;5044290;28;45311;-55
2022/09/11 04:31:26;;;;;;;;;7.00;7.00;;;;;23.76;47.82;101391.06;5043994;28;45365;-54
2022/09/11 04:33:53;;;;;;;;;6.25;4.25;;;;;23.76;47.21;101391.06;5041317;28;45558;-52
2022/09/11 04:36:20;;;;;;;;;5.00;5.00;;;;;23.74;47.40;101396.47;5056283;28;47221;-53
2022/09/11 04:38:46;;;;;;;;;5.00;5.00;;;;;23.75;47.93;101392.88;5044205;28;45226;-48
2022/09/11 04:41:13;;;;;;;;;7.25;6.25;;;;;23.75;47.23;101390.22;5040544;28;45243;-46
2022/09/11 04:43:40;;;;;;;;;7.00;5.75;;;;;23.74;47.77;101390.31;5045712;28;45536;-46
2022/09/11 04:46:14;;;;;;;;;6.00;6.00;;;;;23.74;47.57;101401.75;5039813;28;46298;-52
2022/09/11 04:48:45;;;;;;;;;4.25;3.00;;;;;23.74;47.68;101396.47;5037306;28;45379;-51
2022/09/11 04:51:23;;;;;;;;;5.75;5.75;;;;;23.74;47.51;101401.75;5044224;28;45568;-49
2022/09/11 04:53:50;;;;;;;;;5.00;4.00;;;;;23.74;47.58;101399.09;5041652;28;45408;-48
2022/09/11 04:56:16;;;;;;;;;6.00;6.00;;;;;23.74;47.74;101401.75;5044507;28;45279;-50
2022/09/11 04:58:42;;;;;;;;;4.00;4.00;;;;;23.73;47.48;101410.63;5049572;28;45485;-49
2022/09/11 05:01:15;;;;;;;;;5.00;5.00;;;;;23.73;47.37;101409.78;5049704;28;45618;-46
2022/09/11 05:03:42;;;;;;;;;7.25;6.25;;;;;23.72;47.37;101403.63;5051441;28;45363;-51
2022/09/11 05:06:14;;;;;;;;;6.25;5.75;;;;;23.72;47.30;101410.72;5052082;28;47773;-51
2022/09/11 05:08:39;;;;;;;;;6.00;5.00;;;;;23.73;47.55;101409.78;5048160;28;45344;-50
2022/09/11 05:11:05;;;;;;;;;5.75;5.75;;;;;23.72;47.56;101414.22;5047480;28;44791;-52
2022/09/11 05:13:32;;;;;;;;;6.00;5.25;;;;;23.72;47.82;101408.94;5040007;28;45440;-50
2022/09/11 05:16:11;;;;;;;;;6.00;6.00;;;;;23.72;47.71;101421.28;5038162;28;46164;-56
2022/09/11 05:18:38;;;;;;;;;5.50;5.50;;;;;23.71;47.36;101417.81;5045289;28;45351;-55
2022/09/11 05:21:12;;;;;;;;;7.75;5.25;;;;;23.71;47.56;101420.47;5043929;28;45319;-56
2022/09/11 05:23:38;;;;;;;;;6.00;6.00;;;;;23.70;47.59;101413.47;5043035;28;45382;-53
2022/09/11 05:26:05;;;;;;;;;8.25;5.00;;;;;23.70;47.10;101424.03;5041036;28;46569;-48
2022/09/11 05:28:31;;;;;;;;;5.25;5.25;;;;;23.71;47.32;101419.59;5038347;28;45676;-52
2022/09/11 05:30:58;;;;;;;;;8.00;7.00;;;;;23.71;47.63;101422.22;5037221;28;45312;-48
2022/09/11 05:33:26;;;;;;;;;5.50;5.25;;;;;23.70;47.07;101426.69;5036192;28;45526;-55
2022/09/11 05:35:53;;;;;;;;;3.25;3.25;;;;;23.69;47.78;101422.34;5036823;28;46441;-53
2022/09/11 05:38:20;;;;;;;;;3.75;3.75;;;;;23.70;47.56;101431.16;5037095;28;45378;-53
2022/09/11 05:40:48;;;;;;;;;5.00;5.00;;;;;23.69;47.28;101438.22;5035317;28;45367;-54
2022/09/11 05:43:14;;;;;;;;;6.00;4.75;;;;;23.70;47.59;101436.44;5037116;28;45264;-52
2022/09/11 05:45:44;;;;;;;;;4.25;4.25;;;;;23.70;47.63;101439.09;5036588;28;46635;-56
2022/09/11 05:48:10;;;;;;;;;6.50;6.25;;;;;23.70;47.18;101441.72;5037219;28;45350;-54
2022/09/11 05:50:36;;;;;;;;;5.00;5.00;;;;;23.70;47.40;101447.03;5036690;28;45354;-53
2022/09/11 05:53:02;;;;;;;;;6.25;5.25;;;;;23.70;47.71;101444.38;5043364;28;45468;-53
2022/09/11 05:55:27;;;;;;;;;6.25;6.25;;;;;23.69;46.98;101443.50;5040255;28;45280;-48
2022/09/11 05:57:53;;;;;;;;;4.25;4.25;;;;;23.69;47.15;101446.16;5043878;28;45224;-47
2022/09/11 06:00:19;;;;;;;;;7.50;5.75;;;;;23.69;47.26;101448.81;5042766;28;45409;-52
2022/09/11 06:02:45;;;;;;;;;6.50;6.50;;;;;23.69;47.29;101448.81;5035949;28;45285;-49
2022/09/11 06:05:10;;;;;;;;;6.75;5.00;;;;;23.69;47.07;101446.16;5036481;28;46376;-51
2022/09/11 06:07:36;;;;;;;;;4.75;2.50;;;;;23.69;47.27;101451.44;5036631;28;45260;-49
2022/09/11 06:10:01;;;;;;;;;6.25;5.25;;;;;23.69;47.77;101451.44;5038852;28;45292;-54
2022/09/11 06:12:27;;;;;;;;;5.75;5.75;;;;;23.68;47.09;101460.31;5057359;28;44987;-55
2022/09/11 06:14:53;;;;;;;;;5.50;5.50;;;;;23.69;47.33;101456.75;5047705;28;45323;-48
2022/09/11 06:17:19;;;;;;;;;9.75;6.50;;;;;23.69;47.46;101456.75;5036865;28;45760;-51
2022/09/11 06:19:45;;;;;;;;;8.25;5.50;;;;;23.69;47.42;101455.91;5040242;28;45367;-52
2022/09/11 06:22:10;;;;;;;;;4.00;4.00;;;;;23.68;47.09;101455.03;5040066;28;45431;-47
2022/09/11 06:24:36;;;;;;;;;5.00;5.00;;;;;23.69;47.48;101458.56;5049896;28;46449;-50
2022/09/11 06:27:01;;;;;;;;;6.50;5.25;;;;;23.69;47.44;101461.19;5036551;28;45900;-46
2022/09/11 06:29:27;;;;;;;;;9.00;7.00;;;;;23.69;47.27;101464.69;5041038;28;45343;-47
2022/09/11 06:31:53;;;;;;;;;6.50;5.75;;;;;23.70;47.25;101457.63;5038585;28;45375;-51
2022/09/11 06:34:18;;;;;;;;;7.00;7.00;;;;;23.68;47.26;101462.97;5036952;28;47513;-49
2022/09/11 06:36:44;;;;;;;;;6.50;5.75;;;;;23.69;47.42;101462.03;5039249;28;45391;-50
2022/09/11 06:39:10;;;;;;;;;6.75;5.25;;;;;23.70;47.47;101453.16;5052034;28;44749;-50
2022/09/11 06:41:35;;;;;;;;;6.00;6.00;;;;;23.70;47.45;101460.25;5052487;28;44940;-53
2022/09/11 06:44:01;;;;;;;;;6.00;6.00;;;;;23.71;47.52;101464.59;5044761;28;46281;-48
2022/09/11 06:46:26;;;;;;;;;8.00;6.50;;;;;23.69;47.66;101464.69;5039660;28;45433;-51
2022/09/11 06:48:53;;;;;;;;;6.50;6.50;;;;;23.70;47.20;101465.56;5043735;28;45457;-49
2022/09/11 06:51:21;;;;;;;;;3.00;3.00;;;;;23.70;47.13;101469.03;5042243;28;45634;-54
2022/09/11 06:53:47;;;;;;;;;6.00;6.00;;;;;23.70;47.05;101466.38;5049130;28;46340;-54
2022/09/11 06:56:15;;;;;;;;;8.75;7.00;;;;;23.70;47.31;101465.56;5049398;28;45235;-49
2022/09/11 06:58:42;;;;;;;;;5.75;5.00;;;;;23.70;47.44;101455.81;5040483;28;45321;-54
2022/09/11 07:01:13;;;;;;;;;6.00;6.00;;;;;23.71;47.29;101454.88;5037949;28;45654;-50
2022/09/11 07:03:44;;;;;;;;;6.50;6.50;;;;;23.71;47.07;101457.50;5049239;28;47405;-48
2022/09/11 07:06:11;;;;;;;;;6.25;6.25;;;;;23.71;47.49;101462.81;5040230;28;45778;-50
2022/09/11 07:08:37;;;;;;;;;7.00;7.00;;;;;23.71;47.45;101457.50;5039646;28;45557;-54
2022/09/11 07:11:04;;;;;;;;;7.25;5.50;;;;;23.71;47.73;101459.28;5037933;28;45253;-50
2022/09/11 07:13:31;;;;;;;;;7.00;6.75;;;;;23.72;47.31;101459.22;5039187;28;46207;-49
2022/09/11 07:16:05;;;;;;;;;8.00;6.75;;;;;23.72;47.39;101458.34;5041188;28;45208;-50
2022/09/11 07:18:38;;;;;;;;;6.75;5.25;;;;;23.72;47.30;101466.28;5041493;28;45220;-50
2022/09/11 07:21:20;;;;;;;;;7.50;7.50;;;;;23.73;47.23;101462.69;5040291;28;45591;-48
2022/09/11 07:23:53;;;;;;;;;6.00;6.00;;;;;23.72;47.33;101461.00;5039049;28;47207;-54
2022/09/11 07:26:20;;;;;;;;;7.50;6.75;;;;;23.72;46.83;101468.94;5038799;28;45441;-54
2022/09/11 07:28:50;;;;;;;;;6.75;5.00;;;;;23.72;47.50;101472.44;5038873;28;45456;-49
2022/09/11 07:31:21;;;;;;;;;8.00;7.00;;;;;23.73;46.98;101468.00;5038531;28;45585;-54
2022/09/11 07:33:48;;;;;;;;;7.50;7.50;;;;;23.72;47.04;101467.16;5040287;28;45453;-54
2022/09/11 07:36:19;;;;;;;;;8.00;7.00;;;;;23.72;47.52;101472.44;5044588;28;45298;-52
2022/09/11 07:38:46;;;;;;;;;6.75;6.25;;;;;23.74;47.32;101475.00;5040201;28;45291;-49
2022/09/11 07:41:14;;;;;;;;;10.50;7.00;;;;;23.73;47.45;101468.00;5039268;28;45525;-56
2022/09/11 07:43:41;;;;;;;;;9.75;7.75;;;;;23.73;47.26;101473.28;5039373;28;46236;-48
2022/09/11 07:46:08;;;;;;;;;7.25;7.25;;;;;23.73;47.05;101468.00;5041368;28;45343;-53
2022/09/11 07:48:34;;;;;;;;;6.00;6.00;;;;;23.72;47.28;101467.16;5040344;28;45471;-52
2022/09/11 07:51:03;;;;;;;;;9.25;7.75;;;;;23.72;47.31;101469.81;5042884;28;45627;-48
2022/09/11 07:53:33;;;;;;;;;6.75;6.75;;;;;23.74;47.19;101475.88;5043751;28;46568;-51
2022/09/11 07:56:07;;;;;;;;;8.00;7.00;;;;;23.73;47.06;101474.16;5041624;28;45840;-54
2022/09/11 07:58:34;;;;;;;;;8.00;8.00;;;;;23.74;47.36;101470.56;5041433;28;45395;-51
2022/09/11 08:01:01;;;;;;;;;7.00;7.00;;;;;23.75;47.40;101466.13;5040405;28;45440;-52
2022/09/11 08:03:27;;;;;;;;;8.00;8.00;;;;;23.75;46.98;101466.97;5041012;28;46205;-53
2022/09/11 08:06:03;;;;;;;;;7.25;7.25;;;;;23.76;46.89;101465.19;5040905;28;45358;-48
2022/09/11 08:08:29;;;;;;;;;8.25;7.25;;;;;23.75;46.86;101469.63;5036525;28;45366;-47
2022/09/11 08:11:03;;;;;;;;;7.00;7.00;;;;;23.76;47.20;101467.81;5040813;28;45522;-51
2022/09/11 08:13:29;;;;;;;;;7.00;7.00;;;;;23.76;46.66;101468.66;5048742;28;45209;-48
2022/09/11 08:15:55;;;;;;;;;10.00;8.25;;;;;23.76;46.77;101473.13;5053345;28;45223;-46
2022/09/11 08:18:21;;;;;;;;;7.50;7.50;;;;;23.75;47.01;101459.03;5038648;28;45356;-46
2022/09/11 08:20:47;;;;;;;;;9.00;8.50;;;;;23.76;47.07;101466.00;5039050;28;45520;-48
2022/09/11 08:23:14;;;;;;;;;9.00;8.75;;;;;23.77;47.26;101465.06;5036307;28;46773;-48
2022/09/11 08:25:39;;;;;;;;;11.25;10.25;;;;;23.77;47.11;101456.28;5039207;28;45405;-48
2022/09/11 08:28:05;;;;;;;;;8.25;6.75;;;;;23.77;46.83;101457.13;5047505;28;45485;-55
2022/09/11 08:30:32;;;;;;;;;10.25;8.75;;;;;23.77;46.86;101462.44;5049653;28;45493;-47
2022/09/11 08:32:58;;;;;;;;;11.00;10.00;;;;;23.78;46.63;101465.94;5045779;28;45323;-50
2022/09/11 08:35:24;;;;;;;;;7.75;7.50;;;;;23.78;47.33;101468.59;5046416;28;45000;-54
2022/09/11 08:37:50;;;;;;;;;8.25;8.25;;;;;23.78;46.74;101466.78;5046360;28;45355;-46
2022/09/11 08:40:17;;;;;;;;;7.50;7.50;;;;;23.79;47.41;101472.94;5057077;28;45220;-47
2022/09/11 08:42:44;;;;;;;;;10.00;8.25;;;;;23.81;46.99;101478.13;5049350;28;46297;-51
2022/09/11 08:45:17;;;;;;;;;8.50;7.00;;;;;23.81;47.27;101470.19;5048969;28;45115;-46
2022/09/11 08:47:50;;;;;;;;;6.00;5.75;;;;;23.81;47.25;101475.50;5048491;28;44964;-45
2022/09/11 08:50:34;;;;;;;;;8.75;8.75;;;;;23.81;46.95;101478.13;5041344;28;45423;-49
2022/09/11 08:53:01;;;;;;;;;11.25;11.00;;;;;23.81;47.15;101486.06;5034885;28;46867;-47
2022/09/11 08:55:42;;;;;;;;;10.25;9.75;;;;;23.82;47.40;101482.50;5036820;28;45500;-48
2022/09/11 08:58:57;;;;;;;;;8.25;8.00;;;;;23.82;46.73;101478.03;5036528;28;45418;-48
2022/09/11 09:01:35;;;;;;;;;9.25;8.25;;;;;23.82;46.88;101480.69;4977077;28;45500;-51
2022/09/11 09:04:20;;;;;;;;;11.25;9.75;;;;;23.84;47.17;101480.59;5038153;28;47030;-49
2022/09/11 09:07:10;;;;;;;;;8.75;8.75;;;;;23.84;47.05;101497.31;5046545;28;45308;-53
2022/09/11 09:09:44;;;;;;;;;9.75;9.75;;;;;23.84;46.79;101483.25;5027334;28;45423;-53
2022/09/11 09:12:27;;;;;;;;;12.25;12.00;;;;;23.84;46.92;101492.03;5028637;28;45464;-53
2022/09/11 09:15:12;;;;;;;;;10.25;10.25;;;;;23.85;46.99;101492.91;5018698;28;45536;-47
2022/09/11 09:17:48;;;;;;;;;12.00;12.00;;;;;23.84;47.05;101493.84;5027525;28;45439;-53
2022/09/11 09:20:27;;;;;;;;;10.25;10.25;;;;;23.84;47.14;101493.84;5019294;28;45364;-49
2022/09/11 09:23:03;;;;;;;;;11.75;9.00;;;;;23.84;46.84;101492.03;5028924;28;45619;-46
2022/09/11 09:25:33;;;;;;;;;12.75;12.75;;;;;23.84;46.88;101485.91;5040032;28;45355;-49
2022/09/11 09:28:10;;;;;;;;;11.25;9.75;;;;;23.85;46.83;101485.81;5040347;28;45605;-49
2022/09/11 09:31:05;;;;;;;;;13.25;10.75;;;;;23.85;46.73;101490.25;5041237;28;45327;-53
2022/09/11 09:33:31;;;;;;;;;13.00;13.00;;;;;23.86;47.17;101495.44;5043322;28;45663;-50
2022/09/11 09:36:16;;;;;;;;;13.00;11.75;;;;;23.86;46.93;101494.63;5041563;28;46083;-49
2022/09/11 09:38:43;;;;;;;;;12.75;11.00;;;;;23.85;47.24;101491.09;5040265;28;45847;-52
2022/09/11 09:41:39;;;;;;;;;12.00;8.50;;;;;23.86;46.76;101489.31;5038374;28;45407;-52
2022/09/11 09:44:41;;;;;;;;;13.25;10.50;;;;;23.87;46.84;101496.28;5038125;28;45233;-55
2022/09/11 09:47:12;;;;;;;;;14.25;13.00;;;;;23.88;46.96;101492.69;5040692;28;45411;-53
2022/09/11 09:49:37;;;;;;;;;14.25;13.00;;;;;23.85;47.17;101483.16;5041316;28;45752;-54
2022/09/11 09:52:23;;;;;;;;;12.50;11.50;;;;;23.88;47.13;101487.41;5040744;28;45315;-51
2022/09/11 09:55:00;;;;;;;;;9.75;9.00;;;;;23.87;46.57;101485.69;5038769;28;45401;-54
2022/09/11 09:57:30;;;;;;;;;9.25;9.25;;;;;23.88;47.09;101490.91;5036799;28;46000;-51
2022/09/11 10:00:05;;;;;;;;;11.75;10.25;;;;;23.89;46.93;101487.34;5036273;28;45746;-54
2022/09/11 10:02:40;;;;;;;;;9.00;9.00;;;;;23.90;47.07;101490.81;5036034;28;45311;-51
2022/09/11 10:05:32;;;;;;;;;11.00;10.50;;;;;23.89;46.70;101479.38;5044239;28;45232;-50
2022/09/11 10:08:17;;;;;;;;;13.75;12.50;;;;;23.90;47.01;101475.81;5040328;28;46356;-47
2022/09/11 10:10:42;;;;;;;;;6.75;6.75;;;;;23.91;46.76;101479.28;5037264;28;45382;-51
2022/09/11 10:13:17;;;;;;;;;12.25;11.00;;;;;23.91;46.57;101476.63;5040352;28;45330;-47
2022/09/11 10:15:42;;;;;;;;;11.50;9.25;;;;;23.91;46.96;101481.94;5057087;28;45739;-49
2022/09/11 10:18:34;;;;;;;;;14.25;11.00;;;;;23.90;46.93;101475.81;5047018;28;45334;-53
2022/09/11 10:21:12;;;;;;;;;13.50;9.75;;;;;23.90;46.81;101473.16;5037187;28;45412;-50
2022/09/11 10:23:58;;;;;;;;;10.00;9.25;;;;;23.91;47.04;101472.22;5021425;28;45890;-51
2022/09/11 10:26:33;;;;;;;;;10.75;9.25;;;;;23.93;46.87;101474.75;5021242;28;45377;-54
2022/09/11 10:29:12;;;;;;;;;10.00;8.75;;;;;23.92;47.07;101473.06;5024938;28;45407;-54
2022/09/11 10:31:40;;;;;;;;;9.75;9.50;;;;;23.93;47.06;101477.41;5029472;28;45823;-50
2022/09/11 10:34:14;;;;;;;;;10.00;8.00;;;;;23.94;46.42;101476.47;5027095;28;45327;-51
2022/09/11 10:36:52;;;;;;;;;10.25;10.25;;;;;23.94;47.00;101477.31;5029205;28;45289;-48
2022/09/11 10:39:20;;;;;;;;;9.25;9.25;;;;;23.94;46.94;101465.88;5040287;28;45841;-50
2022/09/11 10:41:55;;;;;;;;;8.75;6.25;;;;;23.93;46.86;101465.00;5039313;28;45702;-54
2022/09/11 10:44:23;;;;;;;;;8.25;8.25;;;;;23.94;46.47;101456.13;5039607;28;45367;-46
2022/09/11 10:47:19;;;;;;;;;8.25;7.25;;;;;23.96;46.43;101469.31;5040413;28;45492;-48
2022/09/11 10:49:45;;;;;;;;;7.75;7.00;;;;;23.96;46.90;101456.09;5040798;28;46400;-50
2022/09/11 10:52:11;;;;;;;;;9.50;8.25;;;;;23.96;46.25;101452.56;5038438;28;46203;-49
2022/09/11 10:55:01;;;;;;;;;9.67;8.67;;;;;23.98;46.76;101450.69;5056065;28;44702;-49
2022/09/11 10:57:33;;;;;;;;;8.75;8.75;;;;;23.98;46.51;101438.28;5042903;28;45250;-52
2022/09/11 11:00:13;;;;;;;;;8.00;8.00;;;;;23.98;46.72;101440.94;5045105;28;45741;-50
2022/09/11 11:03:05;;;;;;;;;6.50;6.50;;;;;23.99;46.65;101439.16;5044579;28;45337;-50
2022/09/11 11:06:08;;;;;;;;;9.75;8.00;;;;;23.99;46.39;101428.56;5035785;28;45303;-48
2022/09/11 11:08:49;;;;;;;;;7.75;6.75;;;;;23.98;46.40;101430.34;5026829;28;45222;-51
2022/09/11 11:11:33;;;;;;;;;6.00;4.00;;;;;23.98;46.37;101433.00;5019722;28;47292;-46
2022/09/11 11:14:31;;;;;;;;;7.25;7.25;;;;;23.98;46.23;101427.69;5022083;28;45343;-50
2022/09/11 11:17:08;;;;;;;;;7.00;7.00;;;;;23.96;46.38;101429.59;5019907;28;45478;-55
2022/09/11 11:19:57;;;;;;;;;6.50;6.00;;;;;23.96;46.06;101434.91;5019205;28;45230;-54
2022/09/11 11:22:59;;;;;;;;;6.25;6.25;;;;;23.97;46.46;101426.03;5035668;28;45407;-50
2022/09/11 11:26:04;;;;;;;;;6.00;6.00;;;;;23.98;46.11;101425.03;5038463;28;45301;-51
2022/09/11 11:28:44;;;;;;;;;9.75;7.50;;;;;23.98;46.11;101422.41;5042183;28;45268;-51
2022/09/11 11:31:41;;;;;;;;;5.25;5.25;;;;;23.98;46.05;101419.75;5042152;28;45515;-50
2022/09/11 11:34:45;;;;;;;;;8.00;6.00;;;;;24.00;46.22;101425.81;5037782;28;45504;-46
2022/09/11 11:37:29;;;;;;;;;6.50;6.00;;;;;24.01;45.99;101421.38;5037157;28;45355;-50
2022/09/11 11:40:13;;;;;;;;;6.75;6.00;;;;;23.99;45.98;101410.88;5043244;28;45306;-54
2022/09/11 11:42:47;;;;;;;;;7.00;7.00;;;;;23.99;46.46;101405.56;5052394;28;45257;-51
2022/09/11 11:45:26;;;;;;;;;6.50;6.50;;;;;24.00;46.33;101414.38;5049837;28;46064;-50
2022/09/11 11:47:54;;;;;;;;;4.25;4.00;;;;;24.00;46.22;101407.28;5041230;28;45834;-54